createdAt,value
2023-04-15T00:02:29.704Z,88.87
2023-04-15T00:05:17.528Z,88.80
2023-04-15T00:08:06.581Z,88.82
2023-04-15T00:10:54.892Z,88.89
2023-04-15T00:13:43.448Z,88.95
2023-04-15T00:16:31.917Z,88.96
2023-04-15T00:19:19.723Z,89.09
2023-04-15T00:22:07.383Z,88.99
2023-04-15T00:24:55.305Z,89.16
2023-04-15T00:27:43.132Z,89.02
2023-04-15T00:30:31.682Z,89.07
2023-04-15T00:33:19.931Z,88.74
2023-04-15T00:36:08.824Z,88.93
2023-04-15T00:38:56.385Z,89.02
2023-04-15T00:41:45.824Z,88.86
2023-04-15T00:44:34.812Z,89.01
2023-04-15T00:47:23.155Z,88.86
2023-04-15T00:50:12.974Z,88.81
2023-04-15T00:53:01.235Z,88.95
2023-04-15T00:55:49.847Z,88.83
2023-04-15T00:58:37.986Z,88.79
2023-04-15T01:01:26.901Z,88.82
2023-04-15T01:04:16.044Z,88.55
2023-04-15T01:07:04.461Z,88.68
2023-04-15T01:09:53.147Z,88.59
2023-04-15T01:12:41.069Z,88.72
2023-04-15T01:15:29.895Z,88.57
2023-04-15T01:18:20.139Z,88.74
2023-04-15T01:21:07.964Z,88.56
2023-04-15T01:23:58.048Z,88.65
2023-04-15T01:26:46.708Z,88.97
2023-04-15T01:29:38.923Z,88.91
2023-04-15T01:32:27.374Z,88.83
2023-04-15T01:35:15.390Z,89.01
2023-04-15T01:38:08.744Z,89.31
2023-04-15T01:40:56.503Z,89.50
2023-04-15T01:43:45.819Z,89.93
2023-04-15T01:46:34.084Z,89.96
2023-04-15T01:49:21.742Z,90.31
2023-04-15T01:52:09.668Z,90.44
2023-04-15T01:54:57.734Z,90.21
2023-04-15T01:57:46.618Z,90.10
2023-04-15T02:00:34.634Z,90.18
2023-04-15T02:03:22.510Z,90.21
2023-04-15T02:06:10.393Z,89.93
2023-04-15T02:08:59.314Z,89.61
2023-04-15T02:11:47.274Z,89.56
2023-04-15T02:14:35.898Z,89.44
2023-04-15T02:17:24.810Z,89.36
2023-04-15T02:20:12.666Z,89.07
2023-04-15T02:23:00.758Z,88.88
2023-04-15T02:25:53.801Z,88.98
2023-04-15T02:28:42.633Z,88.93
2023-04-15T02:31:30.874Z,88.85
2023-04-15T02:34:19.600Z,88.70
2023-04-15T02:37:12.432Z,88.46
2023-04-15T02:40:01.104Z,88.59
2023-04-15T02:42:49.280Z,88.47
2023-04-15T02:45:37.318Z,88.39
2023-04-15T02:48:27.138Z,88.54
2023-04-15T02:51:22.777Z,88.11
2023-04-15T02:54:13.419Z,87.76
2023-04-15T02:57:01.816Z,87.55
2023-04-15T02:59:49.681Z,87.20
2023-04-15T03:02:42.342Z,86.98
2023-04-15T03:05:31.077Z,86.69
2023-04-15T03:08:19.169Z,86.74
2023-04-15T03:11:08.235Z,86.46
2023-04-15T03:13:56.752Z,86.50
2023-04-15T03:16:52.104Z,86.46
2023-04-15T03:19:40.148Z,86.21
2023-04-15T03:22:29.542Z,86.39
2023-04-15T03:25:17.845Z,86.51
2023-04-15T03:28:06.276Z,86.45
2023-04-15T03:30:54.234Z,86.23
2023-04-15T03:33:43.093Z,86.32
2023-04-15T03:36:34.715Z,86.44
2023-04-15T03:39:22.636Z,86.54
2023-04-15T03:42:10.378Z,86.46
2023-04-15T03:44:58.456Z,86.54
2023-04-15T03:47:46.879Z,86.67
2023-04-15T03:50:34.617Z,86.74
2023-04-15T03:53:23.255Z,86.89
2023-04-15T03:56:10.696Z,86.86
2023-04-15T03:58:58.588Z,87.03
2023-04-15T04:01:47.172Z,87.12
2023-04-15T04:04:35.246Z,87.22
2023-04-15T04:07:24.017Z,87.18
2023-04-15T04:10:12.063Z,87.23
2023-04-15T04:13:00.763Z,87.33
2023-04-15T04:15:48.769Z,87.44
2023-04-15T04:18:36.732Z,87.55
2023-04-15T04:21:24.792Z,87.49
2023-04-15T04:24:12.859Z,87.42
2023-04-15T04:27:00.973Z,87.79
2023-04-15T04:29:50.058Z,87.83
2023-04-15T04:32:38.335Z,87.93
2023-04-15T04:35:26.116Z,88.06
2023-04-15T04:38:14.151Z,88.32
2023-04-15T04:41:01.918Z,88.44
2023-04-15T04:43:49.961Z,88.74
2023-04-15T04:46:40.510Z,88.73
2023-04-15T04:49:28.243Z,88.75
2023-04-15T04:52:16.248Z,88.59
2023-04-15T04:55:05.041Z,88.56
2023-04-15T04:57:52.886Z,88.72
2023-04-15T05:00:41.045Z,88.73
2023-04-15T05:03:29.244Z,88.96
2023-04-15T05:06:19.790Z,89.01
2023-04-15T05:09:08.539Z,88.94
2023-04-15T05:11:57.438Z,88.97
2023-04-15T05:14:47.195Z,88.94
2023-04-15T05:17:35.492Z,89.11
2023-04-15T05:20:24.643Z,89.45
2023-04-15T05:23:13.006Z,89.62
2023-04-15T05:26:02.394Z,89.91
2023-04-15T05:28:50.532Z,89.59
2023-04-15T05:31:38.701Z,89.08
2023-04-15T05:34:27.236Z,89.14
2023-04-15T05:37:15.059Z,88.80
2023-04-15T05:40:02.876Z,88.86
2023-04-15T05:42:51.461Z,88.67
2023-04-15T05:45:39.702Z,88.50
2023-04-15T05:48:27.768Z,88.65
2023-04-15T05:51:15.696Z,87.90
2023-04-15T05:54:03.841Z,87.30
2023-04-15T05:56:52.748Z,87.17
2023-04-15T05:59:42.245Z,87.00
2023-04-15T06:02:29.849Z,86.67
2023-04-15T06:05:19.468Z,86.79
2023-04-15T06:08:07.212Z,86.26
2023-04-15T06:10:55.059Z,86.33
2023-04-15T06:13:42.780Z,85.78
2023-04-15T06:16:32.385Z,85.61
2023-04-15T06:19:21.161Z,85.82
2023-04-15T06:22:09.569Z,85.85
2023-04-15T06:24:57.981Z,85.57
2023-04-15T06:27:46.165Z,85.49
2023-04-15T06:30:36.085Z,85.37
2023-04-15T06:33:24.638Z,84.95
2023-04-15T06:36:12.640Z,85.01
2023-04-15T06:39:01.933Z,84.87
2023-04-15T06:41:51.447Z,85.06
2023-04-15T06:44:44.508Z,84.26
2023-04-15T06:47:32.699Z,84.37
2023-04-15T06:50:21.805Z,84.34
2023-04-15T06:53:09.475Z,84.23
2023-04-15T06:55:57.460Z,84.22
2023-04-15T06:58:46.487Z,83.51
2023-04-15T07:01:34.731Z,83.50
2023-04-15T07:04:23.111Z,83.44
2023-04-15T07:07:15.485Z,83.03
2023-04-15T07:10:03.417Z,82.21
2023-04-15T07:12:51.669Z,82.16
2023-04-15T07:15:39.713Z,81.86
2023-04-15T07:18:28.613Z,81.65
2023-04-15T07:21:18.015Z,81.61
2023-04-15T07:24:06.901Z,80.94
2023-04-15T07:27:00.878Z,79.79
2023-04-15T07:29:52.132Z,79.96
2023-04-15T07:32:42.240Z,78.91
2023-04-15T07:35:30.300Z,78.19
2023-04-15T07:38:19.597Z,76.65
2023-04-15T07:41:08.082Z,76.45
2023-04-15T07:43:55.690Z,75.45
2023-04-15T07:46:44.135Z,75.02
2023-04-15T07:49:32.925Z,74.34
2023-04-15T07:52:25.083Z,73.58
2023-04-15T07:55:13.867Z,73.32
2023-04-15T07:58:05.900Z,70.45
2023-04-15T08:00:56.424Z,68.20
2023-04-15T08:03:45.531Z,68.17
2023-04-15T08:06:40.111Z,67.26
2023-04-15T08:09:28.356Z,66.96
2023-04-15T08:12:21.358Z,66.66
2023-04-15T08:15:11.223Z,66.80
2023-04-15T08:18:01.084Z,66.77
2023-04-15T08:20:49.745Z,67.36
2023-04-15T08:23:38.685Z,67.70
2023-04-15T08:26:26.759Z,67.46
2023-04-15T08:29:15.456Z,67.65
2023-04-15T08:32:04.089Z,67.49
2023-04-15T08:34:53.650Z,67.23
2023-04-15T08:37:43.039Z,67.43
2023-04-15T08:40:41.571Z,67.72
2023-04-15T08:43:34.722Z,67.19
2023-04-15T08:46:23.610Z,67.50
2023-04-15T08:49:13.532Z,66.69
2023-04-15T08:52:02.879Z,67.23
2023-04-15T08:54:51.365Z,67.32
2023-04-15T08:57:40.041Z,67.24
2023-04-15T09:00:31.165Z,67.65
2023-04-15T09:03:21.999Z,67.69
2023-04-15T09:06:11.012Z,67.93
2023-04-15T09:08:58.655Z,67.91
2023-04-15T09:11:47.363Z,67.84
2023-04-15T09:14:40.683Z,67.90
2023-04-15T09:17:28.439Z,68.44
2023-04-15T09:20:21.688Z,68.56
2023-04-15T09:23:14.845Z,68.72
2023-04-15T09:26:06.036Z,69.30
2023-04-15T09:28:54.151Z,69.36
2023-04-15T09:31:43.660Z,69.79
2023-04-15T09:34:38.539Z,69.92
2023-04-15T09:37:37.546Z,70.31
2023-04-15T09:40:41.997Z,70.84
2023-04-15T09:43:40.955Z,70.79
2023-04-15T09:46:45.319Z,71.48
2023-04-15T09:49:35.494Z,71.92
2023-04-15T09:52:25.829Z,72.44
2023-04-15T09:55:15.623Z,72.44
2023-04-15T09:58:08.804Z,72.79
2023-04-15T10:01:01.953Z,73.13
2023-04-15T10:03:50.567Z,73.60
2023-04-15T10:06:40.058Z,73.62
2023-04-15T10:09:28.529Z,73.65
2023-04-15T10:12:18.898Z,73.32
2023-04-15T10:15:09.841Z,73.44
2023-04-15T10:18:00.880Z,73.38
2023-04-15T10:20:50.317Z,73.04
2023-04-15T10:23:38.987Z,72.93
2023-04-15T10:26:27.040Z,72.48
2023-04-15T10:29:15.339Z,71.90
2023-04-15T10:32:04.908Z,71.64
2023-04-15T10:34:54.982Z,71.52
2023-04-15T10:37:43.197Z,71.08
2023-04-15T10:40:33.281Z,70.64
2023-04-15T10:43:28.696Z,70.97
2023-04-15T10:46:38.804Z,70.79
2023-04-15T10:49:27.933Z,70.85
2023-04-15T10:52:24.499Z,71.28
2023-04-15T10:55:23.932Z,71.36
2023-04-15T10:58:11.762Z,71.63
2023-04-15T11:01:02.899Z,71.55
2023-04-15T11:03:51.847Z,71.24
2023-04-15T11:06:46.021Z,71.58
2023-04-15T11:09:34.890Z,70.99
2023-04-15T11:12:23.260Z,70.90
2023-04-15T11:15:33.445Z,70.12
2023-04-15T11:18:28.199Z,69.57
2023-04-15T11:21:16.597Z,69.30
2023-04-15T11:24:05.427Z,69.08
2023-04-15T11:26:59.938Z,69.35
2023-04-15T11:29:47.928Z,69.64
2023-04-15T11:32:35.527Z,69.80
2023-04-15T11:35:23.459Z,70.10
2023-04-15T11:38:14.389Z,70.16
2023-04-15T11:41:02.491Z,70.23
2023-04-15T11:43:52.923Z,70.47
2023-04-15T11:46:40.962Z,70.74
2023-04-15T11:49:31.350Z,70.08
2023-04-15T11:52:19.221Z,69.99
2023-04-15T11:55:09.025Z,69.36
2023-04-15T11:58:24.620Z,68.44
2023-04-15T12:01:16.677Z,67.73
2023-04-15T12:04:16.535Z,67.73
2023-04-15T12:07:07.739Z,67.77
2023-04-15T12:09:58.755Z,67.77
2023-04-15T12:12:52.732Z,68.21
2023-04-15T12:15:40.921Z,68.32
2023-04-15T12:18:29.248Z,68.79
2023-04-15T12:21:20.808Z,68.79
2023-04-15T12:24:11.632Z,68.66
2023-04-15T12:27:04.579Z,68.36
2023-04-15T12:30:04.915Z,67.72
2023-04-15T12:32:53.870Z,67.16
2023-04-15T12:35:42.314Z,66.97
2023-04-15T12:38:31.857Z,66.88
2023-04-15T12:41:21.993Z,67.36
2023-04-15T12:44:09.765Z,67.65
2023-04-15T12:46:58.242Z,67.52
2023-04-15T12:49:46.497Z,67.53
2023-04-15T12:52:34.456Z,67.75
2023-04-15T12:55:23.779Z,67.75
2023-04-15T12:58:12.129Z,68.32
2023-04-15T13:01:00.149Z,68.90
2023-04-15T13:03:50.506Z,69.66
2023-04-15T13:06:38.702Z,70.31
2023-04-15T13:09:28.032Z,70.96
2023-04-15T13:12:17.134Z,71.54
2023-04-15T13:15:05.804Z,72.42
2023-04-15T13:17:54.104Z,73.21
2023-04-15T13:20:42.407Z,73.64
2023-04-15T13:23:32.726Z,74.24
2023-04-15T13:26:21.364Z,74.75
2023-04-15T13:29:09.172Z,75.12
2023-04-15T13:31:57.115Z,75.60
2023-04-15T13:34:45.067Z,75.99
2023-04-15T13:37:33.329Z,76.89
2023-04-15T13:40:21.857Z,77.31
2023-04-15T13:43:09.870Z,77.73
2023-04-15T13:45:57.973Z,78.30
2023-04-15T13:48:47.176Z,78.89
2023-04-15T13:51:37.045Z,78.65
2023-04-15T13:54:26.158Z,79.21
2023-04-15T13:57:25.904Z,79.15
2023-04-15T14:00:14.578Z,79.77
2023-04-15T14:03:02.750Z,80.04
2023-04-15T14:05:56.007Z,79.76
2023-04-15T14:08:44.125Z,80.15
2023-04-15T14:11:32.019Z,80.10
2023-04-15T14:14:19.630Z,80.50
2023-04-15T14:17:08.852Z,80.27
2023-04-15T14:19:56.740Z,80.09
2023-04-15T14:22:44.689Z,80.19
2023-04-15T14:25:33.946Z,80.47
2023-04-15T14:28:22.043Z,80.30
2023-04-15T14:31:09.782Z,80.19
2023-04-15T14:33:57.249Z,79.99
2023-04-15T14:36:45.130Z,79.99
2023-04-15T14:39:32.990Z,80.10
2023-04-15T14:42:21.054Z,80.45
2023-04-15T14:45:10.208Z,80.35
2023-04-15T14:47:59.260Z,80.38
2023-04-15T14:50:47.115Z,80.39
2023-04-15T14:53:35.165Z,80.83
2023-04-15T14:56:23.258Z,80.83
2023-04-15T14:59:11.342Z,81.08
2023-04-15T15:02:00.573Z,80.85
2023-04-15T15:04:49.911Z,81.10
2023-04-15T15:07:41.161Z,81.62
2023-04-15T15:10:43.944Z,81.80
2023-04-15T15:13:37.225Z,81.91
2023-04-15T15:16:25.674Z,81.64
2023-04-15T15:19:13.675Z,82.04
2023-04-15T15:22:02.185Z,82.14
2023-04-15T15:24:49.931Z,82.34
2023-04-15T15:27:40.468Z,82.58
2023-04-15T15:30:28.408Z,82.09
2023-04-15T15:33:16.287Z,82.43
2023-04-15T15:36:04.533Z,82.53
2023-04-15T15:38:52.342Z,82.24
2023-04-15T15:41:40.500Z,82.33
2023-04-15T15:44:28.320Z,82.37
2023-04-15T15:47:16.946Z,82.62
2023-04-15T15:50:06.265Z,82.45
2023-04-15T15:52:55.249Z,82.68
2023-04-15T15:55:44.714Z,82.31
2023-04-15T15:58:32.409Z,82.58
2023-04-15T16:01:20.031Z,82.45
2023-04-15T16:04:08.278Z,82.30
2023-04-15T16:06:57.386Z,82.56
2023-04-15T16:09:47.163Z,82.39
2023-04-15T16:12:35.315Z,82.61
2023-04-15T16:15:26.190Z,82.20
2023-04-15T16:18:17.249Z,82.76
2023-04-15T16:21:04.789Z,82.90
2023-04-15T16:23:52.813Z,83.10
2023-04-15T16:26:43.069Z,83.73
2023-04-15T16:29:31.240Z,84.07
2023-04-15T16:32:19.147Z,84.20
2023-04-15T16:35:07.566Z,84.28
2023-04-15T16:37:55.471Z,85.17
2023-04-15T16:40:43.395Z,85.18
2023-04-15T16:43:31.296Z,85.44
2023-04-15T16:46:19.342Z,85.89
2023-04-15T16:49:07.440Z,86.04
2023-04-15T16:51:55.510Z,86.63
2023-04-15T16:54:43.468Z,86.92
2023-04-15T16:57:58.811Z,87.30
2023-04-15T17:00:38.925Z,86.97
2023-04-15T17:03:26.896Z,87.43
2023-04-15T17:06:16.310Z,87.80
2023-04-15T17:09:05.724Z,87.54
2023-04-15T17:11:53.384Z,88.14
2023-04-15T17:14:41.394Z,88.46
2023-04-15T17:17:29.263Z,88.48
2023-04-15T17:20:20.469Z,88.14
2023-04-15T17:23:08.044Z,88.05
2023-04-15T17:25:56.457Z,88.02
2023-04-15T17:28:44.719Z,88.09
2023-04-15T17:31:35.102Z,88.22
2023-04-15T17:34:22.959Z,88.38
2023-04-15T17:37:10.657Z,88.00
2023-04-15T17:39:58.395Z,88.29
2023-04-15T17:42:46.346Z,88.47
2023-04-15T17:45:34.915Z,88.57
2023-04-15T17:48:22.703Z,88.61
2023-04-15T17:51:10.500Z,88.32
2023-04-15T17:53:58.551Z,88.48
2023-04-15T17:56:49.507Z,88.77
2023-04-15T17:59:44.114Z,88.90
2023-04-15T18:02:33.809Z,88.85
2023-04-15T18:05:23.662Z,89.07
2023-04-15T18:08:12.610Z,89.45
2023-04-15T18:11:00.271Z,89.51
2023-04-15T18:13:52.592Z,89.34
2023-04-15T18:16:42.828Z,89.07
2023-04-15T18:19:31.039Z,89.16
2023-04-15T18:22:18.876Z,89.46
2023-04-15T18:25:10.734Z,89.62
2023-04-15T18:27:58.588Z,90.04
2023-04-15T18:30:47.478Z,89.97
2023-04-15T18:33:35.939Z,90.29
2023-04-15T18:36:24.329Z,90.57
2023-04-15T18:39:12.463Z,90.45
2023-04-15T18:42:00.111Z,90.63
2023-04-15T18:44:48.963Z,90.81
2023-04-15T18:47:37.561Z,90.95
2023-04-15T18:50:25.915Z,91.43
2023-04-15T18:53:14.217Z,91.98
2023-04-15T18:56:03.493Z,92.50
2023-04-15T18:59:27.106Z,92.59
2023-04-15T19:02:00.658Z,93.63
2023-04-15T19:04:48.848Z,93.79
2023-04-15T19:07:37.632Z,94.20
2023-04-15T19:10:25.472Z,94.76
2023-04-15T19:13:13.321Z,95.02
2023-04-15T19:16:01.380Z,95.37
2023-04-15T19:18:49.434Z,95.76
2023-04-15T19:21:37.973Z,95.93
2023-04-15T19:24:27.601Z,96.09
2023-04-15T19:27:15.760Z,96.22
2023-04-15T19:30:06.622Z,96.24
2023-04-15T19:32:54.394Z,96.19
2023-04-15T19:35:43.490Z,96.28
2023-04-15T19:38:32.923Z,96.17
2023-04-15T19:41:20.966Z,96.29
2023-04-15T19:44:08.889Z,96.53
2023-04-15T19:46:56.942Z,96.34
2023-04-15T19:49:44.732Z,96.26
2023-04-15T19:52:32.644Z,96.23
2023-04-15T19:55:20.727Z,96.50
2023-04-15T19:58:08.743Z,96.62
2023-04-15T20:00:57.115Z,96.69
2023-04-15T20:03:45.192Z,96.96
2023-04-15T20:06:33.543Z,97.32
2023-04-15T20:09:21.771Z,97.36
2023-04-15T20:12:51.019Z,97.53
2023-04-15T20:15:18.794Z,97.88
2023-04-15T20:18:06.761Z,97.66
2023-04-15T20:20:54.935Z,97.52
2023-04-15T20:23:42.961Z,97.45
2023-04-15T20:26:31.391Z,97.16
2023-04-15T20:29:19.263Z,97.42
2023-04-15T20:32:11.412Z,97.47
2023-04-15T20:34:59.178Z,97.41
2023-04-15T20:37:46.916Z,97.47
2023-04-15T20:40:34.685Z,97.49
2023-04-15T20:43:22.620Z,97.80
2023-04-15T20:46:20.182Z,97.42
2023-04-15T20:49:08.377Z,97.33
2023-04-15T20:51:55.856Z,97.42
2023-04-15T20:54:44.875Z,97.43
2023-04-15T20:57:32.628Z,97.31
2023-04-15T21:00:20.519Z,97.82
2023-04-15T21:03:08.719Z,98.07
2023-04-15T21:05:56.227Z,97.99
2023-04-15T21:08:44.372Z,97.93
2023-04-15T21:11:53.057Z,97.81
2023-04-15T21:14:41.213Z,97.95
2023-04-15T21:17:28.933Z,97.87
2023-04-15T21:20:17.061Z,97.67
2023-04-15T21:23:05.665Z,97.75
2023-04-15T21:25:53.444Z,97.81
2023-04-15T21:28:41.156Z,97.84
2023-04-15T21:31:28.972Z,97.63
2023-04-15T21:34:17.017Z,97.49
2023-04-15T21:37:05.447Z,97.60
2023-04-15T21:39:54.134Z,97.16
2023-04-15T21:42:42.468Z,96.96
2023-04-15T21:45:31.021Z,96.97
2023-04-15T21:48:18.718Z,96.92
2023-04-15T21:51:07.000Z,96.46
2023-04-15T21:53:55.145Z,96.48
2023-04-15T21:56:44.314Z,96.45
2023-04-15T21:59:33.501Z,96.14
2023-04-15T22:02:22.078Z,96.13
2023-04-15T22:05:11.577Z,95.97
2023-04-15T22:08:03.782Z,95.66
2023-04-15T22:10:53.465Z,95.42
2023-04-15T22:13:44.060Z,95.14
2023-04-15T22:16:32.252Z,95.04
2023-04-15T22:19:21.101Z,94.90
2023-04-15T22:22:09.226Z,94.64
2023-04-15T22:24:57.128Z,94.72
2023-04-15T22:27:45.382Z,95.07
2023-04-15T22:30:37.933Z,94.90
2023-04-15T22:33:26.036Z,94.87
2023-04-15T22:36:16.142Z,94.79
2023-04-15T22:39:04.386Z,94.66
2023-04-15T22:41:52.663Z,94.45
2023-04-15T22:44:40.498Z,94.31
2023-04-15T22:47:28.502Z,94.22
2023-04-15T22:50:16.470Z,94.16
2023-04-15T22:53:05.002Z,94.49
2023-04-15T22:55:54.130Z,94.82
2023-04-15T22:58:41.776Z,94.56
2023-04-15T23:01:31.453Z,94.85
2023-04-15T23:04:25.817Z,95.10
2023-04-15T23:07:17.136Z,95.05
2023-04-15T23:10:05.515Z,95.38
2023-04-15T23:12:53.200Z,95.48
2023-04-15T23:15:43.331Z,95.53
2023-04-15T23:18:31.184Z,95.11
2023-04-15T23:21:18.798Z,95.40
2023-04-15T23:24:06.916Z,95.53
2023-04-15T23:26:55.261Z,95.18
2023-04-15T23:29:43.379Z,95.54
2023-04-15T23:32:31.822Z,95.24
2023-04-15T23:35:19.730Z,95.08
2023-04-15T23:38:09.725Z,94.96
2023-04-15T23:40:57.346Z,95.01
2023-04-15T23:43:45.189Z,95.16
2023-04-15T23:46:33.022Z,95.22
2023-04-15T23:49:20.820Z,95.32
2023-04-15T23:52:08.524Z,95.17
2023-04-15T23:54:56.462Z,95.22
2023-04-15T23:57:43.993Z,95.42
